createdAt,value
2019-03-20T00:04:09.009Z,3.40
2019-03-20T00:09:14.646Z,4.00
2019-03-20T00:14:19.799Z,3.47
2019-03-20T00:19:25.024Z,3.33
2019-03-20T00:24:30.183Z,3.50
2019-03-20T00:29:35.738Z,3.57
2019-03-20T00:34:40.880Z,3.57
2019-03-20T00:39:46.101Z,3.20
2019-03-20T00:44:51.244Z,3.37
2019-03-20T00:49:58.075Z,3.53
2019-03-20T00:55:04.115Z,3.80
2019-03-20T01:00:14.863Z,3.97
2019-03-20T01:05:21.040Z,3.53
2019-03-20T01:10:26.198Z,4.07
2019-03-20T01:15:31.764Z,3.73
2019-03-20T01:20:37.216Z,4.80
2019-03-20T01:25:42.696Z,3.43
2019-03-20T01:30:47.832Z,3.97
2019-03-20T01:35:52.975Z,4.43
2019-03-20T01:40:58.124Z,3.80
2019-03-20T01:46:05.292Z,3.80
2019-03-20T01:51:20.961Z,3.50
2019-03-20T01:56:26.108Z,3.90
2019-03-20T02:01:31.624Z,4.00
2019-03-20T02:06:37.311Z,3.57
2019-03-20T02:11:42.470Z,3.33
2019-03-20T02:16:47.878Z,3.30
2019-03-20T02:21:53.039Z,3.50
2019-03-20T02:26:58.648Z,3.60
2019-03-20T02:32:04.987Z,3.57
2019-03-20T02:37:10.733Z,3.43
2019-03-20T02:42:15.877Z,4.63
2019-03-20T02:47:21.417Z,3.57
2019-03-20T02:52:26.482Z,3.63
2019-03-20T02:57:31.650Z,3.80
2019-03-20T03:02:36.619Z,3.60
2019-03-20T03:07:41.813Z,3.50
2019-03-20T03:12:47.347Z,3.33
2019-03-20T03:17:52.853Z,3.20
2019-03-20T03:22:58.131Z,3.67
2019-03-20T03:28:03.305Z,3.33
2019-03-20T03:33:08.476Z,3.67
2019-03-20T03:38:13.655Z,3.30
2019-03-20T03:43:18.806Z,3.40
2019-03-20T03:48:24.316Z,3.43
2019-03-20T03:53:29.519Z,3.57
2019-03-20T03:58:34.660Z,3.40
2019-03-20T04:03:40.230Z,3.80
2019-03-20T04:08:45.311Z,3.10
2019-03-20T04:13:51.434Z,4.53
2019-03-20T04:18:56.963Z,3.33
2019-03-20T04:24:02.104Z,4.00
2019-03-20T04:29:07.613Z,3.67
2019-03-20T04:34:12.788Z,4.00
2019-03-20T04:39:18.313Z,3.30
2019-03-20T04:44:23.964Z,3.20
2019-03-20T04:49:29.061Z,3.60
2019-03-20T04:54:34.522Z,3.77
2019-03-20T04:59:39.739Z,3.73
2019-03-20T05:04:44.825Z,2.93
2019-03-20T05:09:50.557Z,3.40
2019-03-20T05:14:56.089Z,3.30
2019-03-20T05:20:01.261Z,3.50
2019-03-20T05:25:06.885Z,3.13
2019-03-20T05:30:13.318Z,3.53
2019-03-20T05:35:18.536Z,3.10
2019-03-20T05:40:24.720Z,4.37
2019-03-20T05:45:30.218Z,3.10
2019-03-20T05:50:35.796Z,3.47
2019-03-20T05:55:41.876Z,3.07
2019-03-20T06:00:47.048Z,3.40
2019-03-20T06:05:52.602Z,2.80
2019-03-20T06:10:58.030Z,3.30
2019-03-20T06:16:03.551Z,3.37
2019-03-20T06:21:08.716Z,2.90
2019-03-20T06:26:13.948Z,3.00
2019-03-20T06:31:19.464Z,3.10
2019-03-20T06:36:24.633Z,3.10
2019-03-20T06:41:29.863Z,3.13
2019-03-20T06:46:35.019Z,3.03
2019-03-20T06:51:40.205Z,3.40
2019-03-20T06:56:45.715Z,2.80
2019-03-20T07:01:50.831Z,4.20
2019-03-20T07:07:15.262Z,3.47
2019-03-20T07:12:19.720Z,3.60
2019-03-20T07:17:24.886Z,2.83
2019-03-20T07:22:30.059Z,2.80
2019-03-20T07:27:35.265Z,2.83
2019-03-20T07:32:40.477Z,2.63
2019-03-20T07:37:55.612Z,2.80
2019-03-20T07:42:52.550Z,2.80
2019-03-20T07:47:57.652Z,3.10
2019-03-20T07:53:03.078Z,2.83
2019-03-20T07:58:08.240Z,3.63
2019-03-20T08:03:13.704Z,2.70
2019-03-20T08:08:18.868Z,3.23
2019-03-20T08:13:24.042Z,3.00
2019-03-20T08:18:29.198Z,2.83
2019-03-20T08:23:34.380Z,2.90
2019-03-20T08:28:39.934Z,2.70
2019-03-20T08:33:45.022Z,2.70
2019-03-20T08:38:50.528Z,3.10
2019-03-20T08:43:55.691Z,2.77
2019-03-20T08:49:01.520Z,3.40
2019-03-20T08:54:07.329Z,3.30
2019-03-20T08:59:12.439Z,3.10
2019-03-20T09:04:17.607Z,2.70
2019-03-20T09:09:24.580Z,2.40
2019-03-20T09:14:30.153Z,3.00
2019-03-20T09:19:35.811Z,2.90
2019-03-20T09:24:41.008Z,3.10
2019-03-20T09:29:46.330Z,3.30
2019-03-20T09:34:51.514Z,3.80
2019-03-20T09:39:56.704Z,3.80
2019-03-20T09:45:01.801Z,4.27
2019-03-20T09:50:08.562Z,3.90
2019-03-20T09:55:14.276Z,3.67
2019-03-20T10:00:21.165Z,3.97
2019-03-20T10:05:26.328Z,3.77
2019-03-20T10:10:31.752Z,3.37
2019-03-20T10:15:36.910Z,3.73
2019-03-20T10:20:42.071Z,3.90
2019-03-20T10:25:47.587Z,3.80
2019-03-20T10:30:54.104Z,4.57
2019-03-20T10:35:59.843Z,3.83
2019-03-20T10:41:05.464Z,4.00
2019-03-20T10:46:10.700Z,3.30
2019-03-20T10:51:17.766Z,3.50
2019-03-20T10:56:23.361Z,2.77
2019-03-20T11:01:28.926Z,3.40
2019-03-20T11:06:34.996Z,2.75
2019-03-20T11:11:40.541Z,3.17
2019-03-20T11:16:45.964Z,3.60
2019-03-20T11:21:51.140Z,2.70
2019-03-20T11:26:56.265Z,3.10
2019-03-20T11:32:02.784Z,3.43
2019-03-20T11:37:07.944Z,2.73
2019-03-20T11:42:13.110Z,2.80
2019-03-20T11:47:18.485Z,3.70
2019-03-20T11:52:23.729Z,4.00
2019-03-20T11:57:29.263Z,2.72
2019-03-20T12:02:34.532Z,2.47
2019-03-20T12:07:39.787Z,3.42
2019-03-20T12:12:44.968Z,3.60
2019-03-20T12:17:50.153Z,3.77
2019-03-20T12:22:55.872Z,4.05
2019-03-20T12:28:01.159Z,2.87
2019-03-20T12:33:06.821Z,3.70
2019-03-20T12:38:14.802Z,3.75
2019-03-20T12:43:19.052Z,3.95
2019-03-20T12:48:24.309Z,3.35
2019-03-20T12:53:31.523Z,3.10
2019-03-20T12:58:36.689Z,3.00
2019-03-20T13:03:42.352Z,3.40
2019-03-20T13:08:47.599Z,3.33
2019-03-20T13:13:53.163Z,4.15
2019-03-20T13:18:58.414Z,4.53
2019-03-20T13:24:03.666Z,3.80
2019-03-20T13:29:09.297Z,3.52
2019-03-20T13:34:14.541Z,4.62
2019-03-20T13:39:20.767Z,4.62
2019-03-20T13:44:26.310Z,4.67
2019-03-20T13:49:31.492Z,5.00
2019-03-20T13:54:36.792Z,4.50
2019-03-20T13:59:42.067Z,4.75
2019-03-20T14:04:47.635Z,4.60
2019-03-20T14:09:53.170Z,4.40
2019-03-20T14:14:58.810Z,4.03
2019-03-20T14:20:04.686Z,4.20
2019-03-20T14:25:10.269Z,4.45
2019-03-20T14:30:23.487Z,4.05
2019-03-20T14:35:28.723Z,4.70
2019-03-20T14:40:37.092Z,4.22
2019-03-20T14:45:41.943Z,4.00
2019-03-20T14:50:47.181Z,4.35
2019-03-20T14:55:52.821Z,5.12
2019-03-20T15:00:58.068Z,5.83
2019-03-20T15:06:03.328Z,5.62
2019-03-20T15:11:08.575Z,6.20
2019-03-20T15:16:14.289Z,7.50
2019-03-20T15:21:19.848Z,7.58
2019-03-20T15:26:25.115Z,10.13
2019-03-20T15:31:30.545Z,10.88
2019-03-20T15:36:37.238Z,9.90
2019-03-20T15:41:42.516Z,8.03
2019-03-20T15:46:47.905Z,9.33
2019-03-20T15:51:53.329Z,11.00
2019-03-20T15:56:58.596Z,11.22
2019-03-20T16:02:04.539Z,10.82
2019-03-20T16:07:09.812Z,11.20
2019-03-20T16:12:15.263Z,11.10
2019-03-20T16:17:20.610Z,10.20
2019-03-20T16:22:26.991Z,10.78
2019-03-20T16:27:32.476Z,12.75
2019-03-20T16:32:38.650Z,11.35
2019-03-20T16:37:46.769Z,10.38
2019-03-20T16:42:52.118Z,11.28
2019-03-20T16:47:57.682Z,11.78
2019-03-20T16:53:03.343Z,12.63
2019-03-20T16:58:08.964Z,12.80
2019-03-20T17:03:14.235Z,10.88
2019-03-20T17:08:19.419Z,10.80
2019-03-20T17:13:25.087Z,10.10
2019-03-20T17:18:30.433Z,10.40
2019-03-20T17:23:35.698Z,10.98
2019-03-20T17:28:40.965Z,10.33
2019-03-20T17:33:47.389Z,10.48
2019-03-20T17:38:53.038Z,11.10
2019-03-20T17:43:58.298Z,10.82
2019-03-20T17:49:03.567Z,13.15
2019-03-20T17:54:08.841Z,12.55
2019-03-20T17:59:17.145Z,11.55
2019-03-20T18:04:22.329Z,10.90
2019-03-20T18:09:27.625Z,11.75
2019-03-20T18:14:33.374Z,14.73
2019-03-20T18:19:39.000Z,12.70
2019-03-20T18:24:44.259Z,12.40
2019-03-20T18:29:49.822Z,12.73
2019-03-20T18:34:55.002Z,11.20
2019-03-20T18:40:00.888Z,11.80
2019-03-20T18:45:06.977Z,10.73
2019-03-20T18:50:12.720Z,11.57
2019-03-20T18:55:18.670Z,10.63
2019-03-20T19:00:26.152Z,10.67
2019-03-20T19:05:40.365Z,10.33
2019-03-20T19:10:46.024Z,11.33
2019-03-20T19:15:53.793Z,11.53
2019-03-20T19:20:59.287Z,11.23
2019-03-20T19:26:04.912Z,11.20
2019-03-20T19:31:10.125Z,11.80
2019-03-20T19:36:15.707Z,10.93
2019-03-20T19:41:20.969Z,11.63
2019-03-20T19:46:26.151Z,11.20
2019-03-20T19:51:31.373Z,11.20
2019-03-20T19:56:36.631Z,10.70
2019-03-20T20:01:41.881Z,11.37
2019-03-20T20:06:47.064Z,11.43
2019-03-20T20:11:52.911Z,10.40
2019-03-20T20:16:58.092Z,10.97
2019-03-20T20:22:03.342Z,10.27
2019-03-20T20:27:08.524Z,10.87
2019-03-20T20:32:14.109Z,10.47
2019-03-20T20:37:20.264Z,11.10
2019-03-20T20:42:25.461Z,10.30
2019-03-20T20:47:30.647Z,10.50
2019-03-20T20:52:35.857Z,11.03
2019-03-20T20:57:41.055Z,10.67
2019-03-20T21:02:46.279Z,10.43
2019-03-20T21:07:51.918Z,10.87
2019-03-20T21:12:57.706Z,11.03
2019-03-20T21:18:57.113Z,10.30
2019-03-20T21:24:23.710Z,10.17
2019-03-20T21:29:54.987Z,9.80
2019-03-20T21:35:56.547Z,10.67
2019-03-20T21:41:53.587Z,9.97
2019-03-20T21:47:35.489Z,10.03
2019-03-20T21:52:41.936Z,9.90
2019-03-20T21:58:17.662Z,9.07
2019-03-20T22:03:23.355Z,9.40
2019-03-20T22:08:29.175Z,9.27
2019-03-20T22:13:51.514Z,9.03
2019-03-20T22:19:14.880Z,9.10
2019-03-20T22:24:32.279Z,9.33
2019-03-20T22:29:38.409Z,9.13
2019-03-20T22:35:21.195Z,8.67
2019-03-20T22:41:09.191Z,9.67
2019-03-20T22:46:50.104Z,9.43
2019-03-20T22:52:41.452Z,8.97
2019-03-20T22:58:09.490Z,9.73
2019-03-20T23:03:20.664Z,9.00
2019-03-20T23:08:27.334Z,8.50
2019-03-20T23:13:41.436Z,8.77
2019-03-20T23:18:41.100Z,9.03
2019-03-20T23:23:47.144Z,9.23
2019-03-20T23:28:53.497Z,8.83
2019-03-20T23:33:59.197Z,8.97
2019-03-20T23:39:06.900Z,9.13
2019-03-20T23:44:12.734Z,8.57
2019-03-20T23:49:20.967Z,8.47
2019-03-20T23:54:30.959Z,9.03
2019-03-20T23:59:36.763Z,9.17
